createdAt,value
2023-03-16T00:00:47.251Z,101386.16
2023-03-16T00:03:19.470Z,101386.31
2023-03-16T00:05:47.631Z,101396.28
2023-03-16T00:08:15.268Z,101396.28
2023-03-16T00:10:46.718Z,101395.59
2023-03-16T00:13:17.573Z,101401.31
2023-03-16T00:15:55.799Z,101402.44
2023-03-16T00:18:27.086Z,101396.31
2023-03-16T00:20:55.728Z,101401.72
2023-03-16T00:23:28.764Z,101394.59
2023-03-16T00:25:56.969Z,101394.59
2023-03-16T00:28:23.761Z,101395.56
2023-03-16T00:30:50.656Z,101391.16
2023-03-16T00:33:17.356Z,101393.16
2023-03-16T00:35:51.214Z,101387.16
2023-03-16T00:38:18.694Z,101397.44
2023-03-16T00:40:46.118Z,101393.16
2023-03-16T00:43:18.620Z,101386.88
2023-03-16T00:45:45.845Z,101384.16
2023-03-16T00:48:12.328Z,101396.00
2023-03-16T00:50:39.604Z,101392.00
2023-03-16T00:53:06.281Z,101384.59
2023-03-16T00:55:33.407Z,101380.88
2023-03-16T00:57:59.783Z,101380.56
2023-03-16T01:00:28.573Z,101368.72
2023-03-16T01:02:55.329Z,101372.88
2023-03-16T01:05:21.774Z,101380.31
2023-03-16T01:07:48.165Z,101368.59
2023-03-16T01:10:14.546Z,101370.03
2023-03-16T01:12:41.180Z,101371.47
2023-03-16T01:15:08.278Z,101363.91
2023-03-16T01:17:35.087Z,101358.19
2023-03-16T01:20:01.923Z,101357.88
2023-03-16T01:22:28.778Z,101364.00
2023-03-16T01:24:55.244Z,101351.16
2023-03-16T01:27:21.759Z,101351.88
2023-03-16T01:29:48.153Z,101356.31
2023-03-16T01:32:14.853Z,101353.47
2023-03-16T01:34:41.517Z,101356.88
2023-03-16T01:37:07.938Z,101352.16
2023-03-16T01:39:34.337Z,101353.00
2023-03-16T01:42:00.799Z,101342.88
2023-03-16T01:44:30.652Z,101339.16
2023-03-16T01:46:57.845Z,101334.44
2023-03-16T01:49:29.460Z,101333.13
2023-03-16T01:52:02.434Z,101317.56
2023-03-16T01:54:34.892Z,101320.25
2023-03-16T01:57:24.285Z,101316.56
2023-03-16T02:00:30.940Z,101316.25
2023-03-16T02:03:04.370Z,101306.25
2023-03-16T02:05:39.158Z,101301.25
2023-03-16T02:08:08.225Z,101303.81
2023-03-16T02:10:35.656Z,101298.09
2023-03-16T02:13:02.222Z,101292.38
2023-03-16T02:15:29.284Z,101288.50
2023-03-16T02:17:57.783Z,101276.63
2023-03-16T02:20:48.858Z,101277.03
2023-03-16T02:23:19.351Z,101276.88
2023-03-16T02:25:57.982Z,101269.59
2023-03-16T02:28:48.206Z,101262.16
2023-03-16T02:31:17.201Z,101258.31
2023-03-16T02:33:46.069Z,101269.84
2023-03-16T02:36:14.908Z,101264.13
2023-03-16T02:38:41.820Z,101262.13
2023-03-16T02:41:14.613Z,101255.53
2023-03-16T02:43:52.080Z,101258.09
2023-03-16T02:46:21.652Z,101262.50
2023-03-16T02:48:55.730Z,101262.38
2023-03-16T02:51:22.148Z,101260.50
2023-03-16T02:53:48.772Z,101254.22
2023-03-16T02:56:15.191Z,101249.66
2023-03-16T02:58:41.553Z,101249.66
2023-03-16T03:01:07.932Z,101260.50
2023-03-16T03:03:34.634Z,101259.50
2023-03-16T03:06:02.238Z,101257.78
2023-03-16T03:08:28.667Z,101254.09
2023-03-16T03:10:55.091Z,101254.09
2023-03-16T03:13:21.613Z,101243.81
2023-03-16T03:15:48.041Z,101252.97
2023-03-16T03:18:14.449Z,101253.25
2023-03-16T03:20:41.081Z,101250.53
2023-03-16T03:23:07.505Z,101248.13
2023-03-16T03:25:36.787Z,101244.41
2023-03-16T03:28:08.297Z,101236.72
2023-03-16T03:30:35.591Z,101240.59
2023-03-16T03:33:02.046Z,101238.00
2023-03-16T03:35:28.579Z,101226.59
2023-03-16T03:37:55.091Z,101221.47
2023-03-16T03:40:21.564Z,101225.19
2023-03-16T03:42:48.138Z,101229.38
2023-03-16T03:45:15.246Z,101226.41
2023-03-16T03:47:42.809Z,101229.41
2023-03-16T03:50:10.866Z,101227.97
2023-03-16T03:52:37.391Z,101222.84
2023-03-16T03:55:04.054Z,101229.44
2023-03-16T03:57:30.562Z,101227.03
2023-03-16T03:59:56.970Z,101231.75
2023-03-16T04:02:23.450Z,101238.34
2023-03-16T04:04:50.179Z,101238.63
2023-03-16T04:07:16.785Z,101242.34
2023-03-16T04:09:43.186Z,101240.47
2023-03-16T04:12:11.242Z,101236.91
2023-03-16T04:14:37.712Z,101230.63
2023-03-16T04:17:04.900Z,101232.34
2023-03-16T04:19:31.382Z,101228.06
2023-03-16T04:21:57.809Z,101231.78
2023-03-16T04:24:24.228Z,101232.47
2023-03-16T04:26:50.592Z,101227.59
2023-03-16T04:29:19.680Z,101216.63
2023-03-16T04:31:46.672Z,101220.75
2023-03-16T04:34:13.781Z,101222.16
2023-03-16T04:36:41.763Z,101212.00
2023-03-16T04:39:08.951Z,101208.00
2023-03-16T04:41:35.429Z,101210.41
2023-03-16T04:44:01.874Z,101209.09
2023-03-16T04:46:29.648Z,101197.94
2023-03-16T04:48:58.295Z,101194.94
2023-03-16T04:51:25.562Z,101198.22
2023-03-16T04:53:51.988Z,101192.47
2023-03-16T04:56:18.549Z,101185.75
2023-03-16T04:58:49.352Z,101185.56
2023-03-16T05:01:17.263Z,101183.88
2023-03-16T05:03:43.900Z,101184.88
2023-03-16T05:06:12.044Z,101184.31
2023-03-16T05:08:38.488Z,101184.47
2023-03-16T05:11:05.172Z,101187.19
2023-03-16T05:13:31.666Z,101175.47
2023-03-16T05:15:58.144Z,101171.91
2023-03-16T05:18:24.975Z,101173.59
2023-03-16T05:20:53.454Z,101176.88
2023-03-16T05:23:21.143Z,101178.16
2023-03-16T05:25:49.247Z,101168.69
2023-03-16T05:28:16.838Z,101175.53
2023-03-16T05:30:45.279Z,101169.47
2023-03-16T05:33:12.213Z,101177.31
2023-03-16T05:35:38.820Z,101178.56
2023-03-16T05:38:05.566Z,101170.13
2023-03-16T05:40:33.107Z,101177.94
2023-03-16T05:43:00.491Z,101181.06
2023-03-16T05:45:28.076Z,101175.16
2023-03-16T05:47:54.762Z,101175.88
2023-03-16T05:50:22.169Z,101183.56
2023-03-16T05:52:48.751Z,101168.81
2023-03-16T05:55:17.573Z,101182.25
2023-03-16T05:57:44.438Z,101168.66
2023-03-16T06:00:15.637Z,101166.47
2023-03-16T06:02:43.237Z,101170.88
2023-03-16T06:05:10.153Z,101179.75
2023-03-16T06:07:37.065Z,101178.72
2023-03-16T06:10:04.780Z,101185.88
2023-03-16T06:12:31.264Z,101184.16
2023-03-16T06:14:57.678Z,101194.19
2023-03-16T06:17:24.141Z,101182.47
2023-03-16T06:19:50.890Z,101183.47
2023-03-16T06:22:18.312Z,101180.91
2023-03-16T06:24:44.729Z,101183.47
2023-03-16T06:27:11.618Z,101172.47
2023-03-16T06:29:38.353Z,101182.84
2023-03-16T06:32:05.142Z,101189.34
2023-03-16T06:34:31.626Z,101187.91
2023-03-16T06:36:58.028Z,101182.84
2023-03-16T06:39:24.624Z,101187.13
2023-03-16T06:42:00.468Z,101191.22
2023-03-16T06:44:26.989Z,101185.47
2023-03-16T06:46:53.445Z,101189.72
2023-03-16T06:49:19.842Z,101187.41
2023-03-16T06:51:46.225Z,101184.22
2023-03-16T06:54:12.630Z,101183.56
2023-03-16T06:56:39.062Z,101186.69
2023-03-16T06:59:05.765Z,101187.56
2023-03-16T07:01:32.407Z,101177.41
2023-03-16T07:03:58.936Z,101177.63
2023-03-16T07:06:25.519Z,101182.09
2023-03-16T07:08:51.902Z,101190.47
2023-03-16T07:11:18.411Z,101187.97
2023-03-16T07:13:44.870Z,101194.47
2023-03-16T07:16:11.424Z,101202.69
2023-03-16T07:18:44.190Z,101187.53
2023-03-16T07:21:11.206Z,101184.00
2023-03-16T07:23:37.595Z,101184.06
2023-03-16T07:26:04.055Z,101186.81
2023-03-16T07:28:30.513Z,101189.59
2023-03-16T07:31:03.779Z,101191.47
2023-03-16T07:33:34.766Z,101194.91
2023-03-16T07:36:04.226Z,101192.75
2023-03-16T07:38:32.452Z,101200.41
2023-03-16T07:40:59.865Z,101196.22
2023-03-16T07:43:26.515Z,101183.25
2023-03-16T07:45:53.405Z,101182.94
2023-03-16T07:48:20.329Z,101179.19
2023-03-16T07:50:48.369Z,101178.84
2023-03-16T07:53:15.570Z,101179.88
2023-03-16T07:55:42.910Z,101178.66
2023-03-16T07:58:10.917Z,101189.06
2023-03-16T08:00:38.235Z,101175.78
2023-03-16T08:03:05.275Z,101179.31
2023-03-16T08:05:34.873Z,101178.31
2023-03-16T08:08:01.777Z,101181.69
2023-03-16T08:10:29.362Z,101173.00
2023-03-16T08:12:56.076Z,101175.72
2023-03-16T08:15:23.481Z,101169.25
2023-03-16T08:17:49.921Z,101154.22
2023-03-16T08:20:16.299Z,101163.09
2023-03-16T08:22:46.320Z,101158.63
2023-03-16T08:25:13.660Z,101156.59
2023-03-16T08:27:40.261Z,101154.72
2023-03-16T08:30:08.112Z,101154.00
2023-03-16T08:32:34.536Z,101154.84
2023-03-16T08:35:00.914Z,101152.41
2023-03-16T08:37:27.559Z,101158.53
2023-03-16T08:39:54.271Z,101154.94
2023-03-16T08:42:21.163Z,101154.38
2023-03-16T08:44:50.839Z,101165.28
2023-03-16T08:47:17.987Z,101164.25
2023-03-16T08:49:44.789Z,101155.69
2023-03-16T08:52:12.847Z,101154.59
2023-03-16T08:54:47.171Z,101149.09
2023-03-16T08:57:19.337Z,101136.69
2023-03-16T08:59:45.922Z,101135.97
2023-03-16T09:02:14.386Z,101130.13
2023-03-16T09:04:41.195Z,101129.22
2023-03-16T09:07:09.761Z,101125.88
2023-03-16T09:09:36.514Z,101123.16
2023-03-16T09:12:04.177Z,101110.06
2023-03-16T09:14:30.829Z,101108.59
2023-03-16T09:16:57.281Z,101107.75
2023-03-16T09:19:24.995Z,101111.91
2023-03-16T09:21:51.412Z,101115.50
2023-03-16T09:24:17.822Z,101121.38
2023-03-16T09:26:44.274Z,101112.22
2023-03-16T09:29:10.737Z,101121.31
2023-03-16T09:31:37.518Z,101108.25
2023-03-16T09:34:04.879Z,101094.47
2023-03-16T09:36:31.274Z,101104.38
2023-03-16T09:38:57.700Z,101098.44
2023-03-16T09:41:36.289Z,101106.16
2023-03-16T09:44:21.938Z,101099.69
2023-03-16T09:46:50.706Z,101111.28
2023-03-16T09:49:21.039Z,101099.53
2023-03-16T09:52:15.735Z,101099.41
2023-03-16T09:54:59.777Z,101094.13
2023-03-16T09:57:29.600Z,101098.59
2023-03-16T10:00:13.883Z,101095.56
2023-03-16T10:02:59.057Z,101080.75
2023-03-16T10:05:27.251Z,101094.41
2023-03-16T10:08:25.888Z,101084.97
2023-03-16T10:11:05.387Z,101087.72
2023-03-16T10:13:38.783Z,101079.28
2023-03-16T10:16:18.411Z,101076.22
2023-03-16T10:18:48.244Z,101067.19
2023-03-16T10:21:18.288Z,101072.38
2023-03-16T10:23:49.726Z,101067.19
2023-03-16T10:26:24.559Z,101068.00
2023-03-16T10:28:51.148Z,101071.41
2023-03-16T10:31:21.450Z,101070.38
2023-03-16T10:33:50.087Z,101066.78
2023-03-16T10:36:33.378Z,101060.00
2023-03-16T10:39:12.386Z,101060.06
2023-03-16T10:41:43.201Z,101061.78
2023-03-16T10:44:12.139Z,101053.81
2023-03-16T10:46:48.581Z,101055.47
2023-03-16T10:49:49.130Z,101042.03
2023-03-16T10:52:45.179Z,101043.34
2023-03-16T10:55:18.788Z,101045.97
2023-03-16T10:57:51.653Z,101039.31
2023-03-16T11:00:41.839Z,101039.00
2023-03-16T11:03:32.329Z,101030.66
2023-03-16T11:06:03.877Z,101023.50
2023-03-16T11:08:37.374Z,101012.47
2023-03-16T11:11:14.672Z,101012.06
2023-03-16T11:13:45.422Z,101009.09
2023-03-16T11:16:36.999Z,100999.13
2023-03-16T11:19:24.459Z,100991.28
2023-03-16T11:22:16.280Z,100981.91
2023-03-16T11:24:52.714Z,100980.53
2023-03-16T11:27:26.247Z,100977.25
2023-03-16T11:30:05.394Z,100981.63
2023-03-16T11:32:40.628Z,100982.91
2023-03-16T11:35:41.987Z,100963.31
2023-03-16T11:38:39.043Z,100962.97
2023-03-16T11:41:10.798Z,100959.47
2023-03-16T11:43:52.294Z,100947.75
2023-03-16T11:46:30.542Z,100945.22
2023-03-16T11:49:31.734Z,100928.25
2023-03-16T11:52:41.630Z,100917.72
2023-03-16T11:55:27.168Z,100918.13
2023-03-16T11:58:28.339Z,100909.91
2023-03-16T12:01:00.588Z,100911.19
2023-03-16T12:03:36.594Z,100902.97
2023-03-16T12:06:35.252Z,100912.50
2023-03-16T12:09:12.380Z,100903.25
2023-03-16T12:11:48.120Z,100884.97
2023-03-16T12:14:24.309Z,100881.22
2023-03-16T12:17:10.017Z,100887.69
2023-03-16T12:19:49.054Z,100888.78
2023-03-16T12:22:21.712Z,100889.50
2023-03-16T12:24:48.907Z,100897.22
2023-03-16T12:27:24.856Z,100879.00
2023-03-16T12:30:17.303Z,100872.88
2023-03-16T12:33:07.677Z,100861.00
2023-03-16T12:35:37.529Z,100850.28
2023-03-16T12:38:22.668Z,100848.50
2023-03-16T12:41:11.208Z,100852.16
2023-03-16T12:43:47.566Z,100846.25
2023-03-16T12:46:24.576Z,100841.69
2023-03-16T12:48:58.810Z,100840.22
2023-03-16T12:51:42.762Z,100853.28
2023-03-16T12:54:23.915Z,100842.13
2023-03-16T12:56:53.855Z,100830.31
2023-03-16T12:59:34.911Z,100835.47
2023-03-16T13:02:03.829Z,100827.88
2023-03-16T13:04:38.501Z,100820.41
2023-03-16T13:07:09.265Z,100817.84
2023-03-16T13:09:42.325Z,100804.00
2023-03-16T13:12:10.419Z,100806.03
2023-03-16T13:14:44.588Z,100803.69
2023-03-16T13:17:17.121Z,100807.78
2023-03-16T13:19:47.663Z,100789.28
2023-03-16T13:22:31.387Z,100795.97
2023-03-16T13:25:14.009Z,100801.50
2023-03-16T13:27:43.317Z,100782.38
2023-03-16T13:30:19.828Z,100781.53
2023-03-16T13:32:48.019Z,100782.38
2023-03-16T13:35:16.868Z,100782.00
2023-03-16T13:37:43.927Z,100766.38
2023-03-16T13:40:23.056Z,100783.91
2023-03-16T13:42:53.013Z,100773.44
2023-03-16T13:45:28.416Z,100773.34
2023-03-16T13:47:55.152Z,100759.13
2023-03-16T13:50:22.014Z,100753.50
2023-03-16T13:53:14.701Z,100748.25
2023-03-16T13:55:45.384Z,100747.78
2023-03-16T13:58:33.599Z,100749.47
2023-03-16T14:01:03.527Z,100750.84
2023-03-16T14:03:38.731Z,100751.66
2023-03-16T14:06:06.914Z,100743.03
2023-03-16T14:08:34.634Z,100744.38
2023-03-16T14:11:01.827Z,100738.69
2023-03-16T14:13:28.224Z,100735.44
2023-03-16T14:16:17.613Z,100719.78
2023-03-16T14:18:47.359Z,100721.03
2023-03-16T14:21:22.132Z,100712.56
2023-03-16T14:23:53.303Z,100707.25
2023-03-16T14:26:19.802Z,100698.94
2023-03-16T14:28:58.404Z,100707.16
2023-03-16T14:31:33.324Z,100690.19
2023-03-16T14:34:05.321Z,100682.63
2023-03-16T14:36:36.965Z,100685.03
2023-03-16T14:39:11.688Z,100680.47
2023-03-16T14:41:39.872Z,100683.28
2023-03-16T14:44:21.076Z,100671.50
2023-03-16T14:46:47.503Z,100681.72
2023-03-16T14:49:26.170Z,100675.47
2023-03-16T14:51:55.333Z,100670.06
2023-03-16T14:54:22.428Z,100654.16
2023-03-16T14:56:51.596Z,100657.88
2023-03-16T14:59:18.409Z,100653.44
2023-03-16T15:01:46.663Z,100651.09
2023-03-16T15:04:16.205Z,100646.16
2023-03-16T15:06:42.700Z,100659.22
2023-03-16T15:09:33.211Z,100652.19
2023-03-16T15:12:00.024Z,100639.94
2023-03-16T15:14:45.263Z,100645.06
2023-03-16T15:17:11.805Z,100638.03
2023-03-16T15:19:38.256Z,100641.81
2023-03-16T15:22:05.220Z,100624.88
2023-03-16T15:24:33.250Z,100635.78
2023-03-16T15:27:00.626Z,100643.16
2023-03-16T15:29:27.146Z,100636.16
2023-03-16T15:31:54.679Z,100635.22
2023-03-16T15:34:22.441Z,100630.69
2023-03-16T15:36:49.132Z,100632.56
2023-03-16T15:39:23.673Z,100628.34
2023-03-16T15:41:50.473Z,100632.50
2023-03-16T15:44:17.136Z,100636.00
2023-03-16T15:46:43.621Z,100625.16
2023-03-16T15:49:10.110Z,100628.66
2023-03-16T15:51:36.771Z,100613.59
2023-03-16T15:54:06.855Z,100625.66
2023-03-16T15:56:50.908Z,100623.88
2023-03-16T15:59:20.576Z,100626.88
2023-03-16T16:01:47.773Z,100640.41
2023-03-16T16:04:17.573Z,100624.13
2023-03-16T16:06:44.324Z,100630.22
2023-03-16T16:09:10.932Z,100633.56
2023-03-16T16:11:38.316Z,100628.41
2023-03-16T16:14:05.065Z,100628.44
2023-03-16T16:16:33.631Z,100626.41
2023-03-16T16:19:00.569Z,100632.50
2023-03-16T16:21:30.830Z,100621.91
2023-03-16T16:23:57.407Z,100618.50
2023-03-16T16:26:48.930Z,100621.75
2023-03-16T16:29:19.314Z,100616.94
2023-03-16T16:31:46.076Z,100614.72
2023-03-16T16:34:18.043Z,100597.88
2023-03-16T16:36:44.915Z,100607.84
2023-03-16T16:39:11.764Z,100595.41
2023-03-16T16:41:39.139Z,100592.28
2023-03-16T16:44:13.114Z,100611.03
2023-03-16T16:46:41.656Z,100613.63
2023-03-16T16:49:19.648Z,100605.03
2023-03-16T16:51:46.276Z,100613.53
2023-03-16T16:54:21.901Z,100609.81
2023-03-16T16:56:51.841Z,100603.81
2023-03-16T16:59:21.187Z,100609.81
2023-03-16T17:01:50.977Z,100611.47
2023-03-16T17:04:19.698Z,100599.28
2023-03-16T17:06:46.693Z,100621.81
2023-03-16T17:09:14.315Z,100615.34
2023-03-16T17:11:42.432Z,100609.81
2023-03-16T17:14:15.127Z,100608.78
2023-03-16T17:16:42.174Z,100613.53
2023-03-16T17:19:19.672Z,100613.25
2023-03-16T17:21:46.429Z,100615.66
2023-03-16T17:24:12.820Z,100611.72
2023-03-16T17:26:44.395Z,100607.09
2023-03-16T17:29:34.333Z,100614.78
2023-03-16T17:32:02.899Z,100608.25
2023-03-16T17:34:32.445Z,100625.88
2023-03-16T17:36:58.935Z,100618.91
2023-03-16T17:39:28.302Z,100610.03
2023-03-16T17:41:58.261Z,100616.66
2023-03-16T17:44:26.887Z,100618.78
2023-03-16T17:46:54.453Z,100622.22
2023-03-16T17:49:22.209Z,100623.06
2023-03-16T17:51:49.006Z,100621.41
2023-03-16T17:54:15.548Z,100632.84
2023-03-16T17:56:42.442Z,100628.25
2023-03-16T17:59:27.436Z,100621.09
2023-03-16T18:01:53.970Z,100620.25
2023-03-16T18:04:28.604Z,100609.09
2023-03-16T18:06:55.586Z,100615.03
2023-03-16T18:09:22.075Z,100619.28
2023-03-16T18:11:51.316Z,100626.94
2023-03-16T18:14:35.194Z,100621.25
2023-03-16T18:17:07.699Z,100618.34
2023-03-16T18:19:34.177Z,100616.66
2023-03-16T18:22:00.816Z,100613.28
2023-03-16T18:24:28.169Z,100615.41
2023-03-16T18:26:55.317Z,100621.97
2023-03-16T18:29:22.384Z,100623.22
2023-03-16T18:31:49.834Z,100625.75
2023-03-16T18:34:23.864Z,100632.13
2023-03-16T18:36:53.104Z,100630.63
2023-03-16T18:39:21.182Z,100635.06
2023-03-16T18:41:48.281Z,100631.91
2023-03-16T18:44:20.292Z,100637.69
2023-03-16T18:46:48.344Z,100632.38
2023-03-16T18:49:22.997Z,100630.91
2023-03-16T18:51:51.389Z,100631.97
2023-03-16T18:54:25.208Z,100633.03
2023-03-16T18:56:51.752Z,100629.03
2023-03-16T18:59:18.315Z,100637.28
2023-03-16T19:01:46.143Z,100624.81
2023-03-16T19:04:21.596Z,100630.31
2023-03-16T19:06:49.176Z,100630.31
2023-03-16T19:09:21.084Z,100632.44
2023-03-16T19:11:48.743Z,100625.25
2023-03-16T19:14:24.077Z,100632.88
2023-03-16T19:16:51.882Z,100640.97
2023-03-16T19:19:21.901Z,100644.78
2023-03-16T19:21:50.398Z,100638.66
2023-03-16T19:24:26.586Z,100644.59
2023-03-16T19:26:54.422Z,100635.09
2023-03-16T19:29:32.919Z,100621.16
2023-03-16T19:32:00.438Z,100634.28
2023-03-16T19:34:27.565Z,100634.13
2023-03-16T19:36:54.088Z,100627.97
2023-03-16T19:39:21.318Z,100623.75
2023-03-16T19:41:54.503Z,100623.34
2023-03-16T19:44:23.366Z,100625.91
2023-03-16T19:46:50.252Z,100611.53
2023-03-16T19:49:22.741Z,100622.97
2023-03-16T19:51:51.276Z,100617.06
2023-03-16T19:54:22.984Z,100613.28
2023-03-16T19:56:50.529Z,100605.47
2023-03-16T19:59:17.572Z,100604.19
2023-03-16T20:01:44.819Z,100617.09
2023-03-16T20:04:19.470Z,100620.28
2023-03-16T20:06:48.133Z,100610.53
2023-03-16T20:09:15.790Z,100606.34
2023-03-16T20:11:42.362Z,100604.63
2023-03-16T20:14:26.989Z,100596.81
2023-03-16T20:16:53.607Z,100599.41
2023-03-16T20:19:22.179Z,100597.06
2023-03-16T20:21:49.464Z,100598.53
2023-03-16T20:24:18.980Z,100590.53
2023-03-16T20:26:47.810Z,100588.00
2023-03-16T20:29:33.807Z,100592.66
2023-03-16T20:32:01.319Z,100578.06
2023-03-16T20:34:30.748Z,100582.94
2023-03-16T20:36:57.863Z,100572.59
2023-03-16T20:39:24.393Z,100576.63
2023-03-16T20:41:52.102Z,100567.72
2023-03-16T20:44:21.088Z,100571.34
2023-03-16T20:46:47.835Z,100568.38
2023-03-16T20:49:23.576Z,100570.28
2023-03-16T20:51:51.763Z,100572.63
2023-03-16T20:54:18.545Z,100570.97
2023-03-16T20:56:45.144Z,100566.72
2023-03-16T20:59:18.817Z,100566.09
2023-03-16T21:01:45.918Z,100568.19
2023-03-16T21:04:25.555Z,100557.44
2023-03-16T21:06:52.383Z,100552.38
2023-03-16T21:09:19.850Z,100558.06
2023-03-16T21:11:47.080Z,100547.09
2023-03-16T21:14:20.826Z,100549.22
2023-03-16T21:16:48.197Z,100553.00
2023-03-16T21:19:18.093Z,100554.72
2023-03-16T21:21:44.874Z,100553.00
2023-03-16T21:24:11.713Z,100547.72
2023-03-16T21:26:39.457Z,100540.75
2023-03-16T21:29:13.456Z,100541.19
2023-03-16T21:31:41.382Z,100537.19
2023-03-16T21:34:26.927Z,100530.22
2023-03-16T21:36:53.463Z,100534.88
2023-03-16T21:39:23.516Z,100531.47
2023-03-16T21:41:50.800Z,100529.81
2023-03-16T21:44:18.369Z,100524.31
2023-03-16T21:46:47.117Z,100521.97
2023-03-16T21:49:14.589Z,100499.81
2023-03-16T21:51:43.044Z,100494.75
2023-03-16T21:54:14.272Z,100494.75
2023-03-16T21:56:41.895Z,100502.34
2023-03-16T21:59:08.473Z,100506.97
2023-03-16T22:01:40.903Z,100498.97
2023-03-16T22:04:17.030Z,100515.44
2023-03-16T22:06:44.937Z,100527.91
2023-03-16T22:09:19.912Z,100507.00
2023-03-16T22:11:46.487Z,100496.84
2023-03-16T22:14:12.877Z,100498.13
2023-03-16T22:16:40.550Z,100485.69
2023-03-16T22:19:12.037Z,100471.31
2023-03-16T22:21:41.175Z,100475.97
2023-03-16T22:24:15.336Z,100485.47
2023-03-16T22:26:42.309Z,100478.50
2023-03-16T22:29:31.582Z,100477.03
2023-03-16T22:32:02.944Z,100479.97
2023-03-16T22:34:56.684Z,100470.69
2023-03-16T22:37:26.284Z,100482.72
2023-03-16T22:39:53.532Z,100487.59
2023-03-16T22:42:27.714Z,100464.56
2023-03-16T22:44:55.192Z,100468.38
2023-03-16T22:47:24.042Z,100457.59
2023-03-16T22:49:50.544Z,100453.16
2023-03-16T22:52:17.392Z,100449.56
2023-03-16T22:54:46.100Z,100442.00
2023-03-16T22:57:14.904Z,100441.56
2023-03-16T22:59:41.914Z,100439.03
2023-03-16T23:02:14.813Z,100425.13
2023-03-16T23:04:41.380Z,100424.88
2023-03-16T23:07:14.246Z,100438.59
2023-03-16T23:09:41.285Z,100432.91
2023-03-16T23:12:26.046Z,100432.50
2023-03-16T23:14:52.601Z,100437.56
2023-03-16T23:17:22.086Z,100440.28
2023-03-16T23:19:48.547Z,100443.88
2023-03-16T23:22:15.662Z,100427.22
2023-03-16T23:24:42.418Z,100425.53
2023-03-16T23:27:17.531Z,100428.91
2023-03-16T23:29:44.224Z,100417.72
2023-03-16T23:32:11.526Z,100410.94
2023-03-16T23:34:37.930Z,100418.75
2023-03-16T23:37:04.333Z,100417.50
2023-03-16T23:39:30.778Z,100422.75
2023-03-16T23:41:57.242Z,100427.19
2023-03-16T23:44:27.465Z,100424.25
2023-03-16T23:46:54.509Z,100420.66
2023-03-16T23:49:25.295Z,100421.72
2023-03-16T23:51:52.887Z,100421.72
2023-03-16T23:54:23.108Z,100412.63
2023-03-16T23:56:50.595Z,100414.97
2023-03-16T23:59:19.071Z,100416.44
